Flight Track Log - Related Links

Times and Time Zones

All times are in EDT time to prevent confusion due to time zone crossing. See the N249BA flight status page for this flight to view local times or setup timezone preferences in your user account.

Time Position Orientation Groundspeed Altitude Reporting Facility
EDT Latitude Longitude Course Direction KTS MPH feet Rate Location/Type
Tue 05:05:07 AM 34.8130 136.8120 178° South 163 188 1,500  Level FlightAware ADS-B
Tue 05:05:32 AM 34.7930 136.8120 180° South 179 206 2,200 1,575 Climbing FlightAware ADS-B
Tue 05:06:27 AM 34.7450 136.8130 179° South 212 244 3,600 1,629 Climbing FlightAware ADS-B
Tue 05:06:42 AM 34.7280 136.8150 174° South 224 258 4,100 2,000 Climbing FlightAware ADS-B
Tue 05:06:57 AM 34.7160 136.8270 141° Southeast 220 253 4,600 1,800 Climbing FlightAware ADS-B
Tue 05:07:22 AM 34.7040 136.8550 118° Southeast 236 272 5,300 1,855 Climbing FlightAware ADS-B
Tue 05:07:52 AM 34.6890 136.8930 116° Southeast 258 297 6,300 2,200 Climbing FlightAware ADS-B
Tue 05:08:22 AM 34.6760 136.9370 110° East 275 316 7,500 2,182 Climbing FlightAware ADS-B
Tue 05:08:47 AM 34.6710 136.9770 99° East 296 341 8,300 2,229 Climbing FlightAware ADS-B
Tue 05:10:42 AM 34.6480 137.1720 98° East 335 386 12,700 2,439 Climbing FlightAware ADS-B
Tue 05:11:22 AM 34.6390 137.2500 98° East 342 394 14,600 2,025 Climbing FlightAware ADS-B
Tue 05:12:02 AM 34.6290 137.3310 99° East 385 443 15,400 1,765 Climbing FlightAware ADS-B
Tue 05:12:47 AM 34.6200 137.4310 96° East 402 463 17,100 1,938 Climbing FlightAware ADS-B
Tue 05:14:12 AM 34.6350 137.6310 85° East 444 511 19,600 1,584 Climbing FlightAware ADS-B
Tue 05:14:52 AM 34.6520 137.7280 78° East 466 536 20,400 1,412 Climbing FlightAware ADS-B
Tue 05:15:37 AM 34.6760 137.8510 77° East 484 557 21,600 1,694 Climbing FlightAware ADS-B
Tue 05:16:17 AM 34.6980 137.9520 75° East 492 566 22,800 1,725 Climbing FlightAware ADS-B
Tue 05:16:57 AM 34.7210 138.0610 76° East 501 577 23,900 1,659 Climbing FlightAware ADS-B
Tue 05:19:00 AM 34.9362 138.2507 36° Northeast  Level Estimated
Tue 05:19:07 AM 34.7980 138.4320 36° Northeast 524 603 27,500  Level FlightAware ADS-B
Tue 05:19:47 AM 34.8220 138.5470 76° East 527 606 28,600 1,371 Climbing FlightAware ADS-B
Tue 05:22:00 AM 35.0545 138.7527 36° Northeast  Level Estimated
Tue 05:22:37 AM 34.9240 139.0450 36° Northeast 542 624 32,300  Level FlightAware ADS-B
Tue 05:23:17 AM 34.9510 139.1590 74° East 537 618 33,100 1,275 Climbing FlightAware ADS-B
Tue 05:23:57 AM 34.9860 139.2830 71° East 533 613 34,000 1,200 Climbing FlightAware ADS-B
Tue 05:24:37 AM 35.0170 139.3970 72° East 532 612 34,700 1,059 Climbing FlightAware ADS-B
Tue 05:25:22 AM 35.0520 139.5260 72° East 530 610 35,500 1,062 Climbing FlightAware ADS-B
Tue 05:26:47 AM 35.1160 139.7670 72° East 519 597 37,000 720 Climbing FlightAware ADS-B
Tue 05:27:27 AM 35.1450 139.8770 72° East 524 603 37,000  Level FlightAware ADS-B
Tue 05:28:12 AM 35.1790 140.0040 72° East 527 606 37,000  Level FlightAware ADS-B
Tue 05:28:52 AM 35.2090 140.1170 72° East 528 608 37,000  Level FlightAware ADS-B
Tue 05:29:37 AM 35.2420 140.2460 73° East 530 610 37,000  Level FlightAware ADS-B
Tue 05:31:02 AM 35.3050 140.4880 72° East 529 609 37,000  Level FlightAware ADS-B
Tue 05:31:42 AM 35.3340 140.6020 73° East 529 609 37,000  Level FlightAware ADS-B
Tue 05:33:07 AM 35.3960 140.8450 73° East 527 606 37,000  Level FlightAware ADS-B
Tue 05:33:47 AM 35.4260 140.9590 72° East 526 605 37,000  Level FlightAware ADS-B
Tue 05:35:07 AM 35.4920 141.1740 69° East 515 593 37,000  Level FlightAware ADS-B
Tue 05:35:57 AM 35.5660 141.2930 53° Northeast 502 578 37,000  Level FlightAware ADS-B
Tue 05:36:37 AM 35.6250 141.3800 50° Northeast 500 575 37,000  Level FlightAware ADS-B
Tue 05:37:17 AM 35.6810 141.4600 49° Northeast 500 575 37,000  Level FlightAware ADS-B
Tue 05:38:42 AM 35.8150 141.6540 50° Northeast 501 577 37,000  Level FlightAware ADS-B
Tue 05:39:27 AM 35.8810 141.7500 50° Northeast 501 577 37,000  Level FlightAware ADS-B
Tue 05:40:07 AM 35.9400 141.8350 49° Northeast 500 575 37,000  Level FlightAware ADS-B
Tue 05:41:37 AM 36.0600 142.0090 50° Northeast 499 574 37,000  Level FlightAware ADS-B
Tue 05:42:27 AM 36.1480 142.1380 50° Northeast 499 574 37,000  Level FlightAware ADS-B
Tue 05:43:07 AM 36.2020 142.2190 50° Northeast 500 575 37,000  Level FlightAware ADS-B
Tue 05:43:52 AM 36.2750 142.3270 50° Northeast 501 577 37,000  Level FlightAware ADS-B
Tue 05:44:47 AM 36.3580 142.4500 50° Northeast 500 575 37,000  Level FlightAware ADS-B
Tue 05:45:22 AM 36.4050 142.5200 50° Northeast 500 575 37,000  Level FlightAware ADS-B
Tue 05:46:12 AM 36.4760 142.6240 50° Northeast 500 575 37,000  Level FlightAware ADS-B
Tue 05:47:07 AM 36.5590 142.7490 50° Northeast 504 580 37,000  Level FlightAware ADS-B
Tue 05:47:47 AM 36.6100 142.8240 50° Northeast 504 580 37,000  Level FlightAware ADS-B
Tue 05:48:27 AM 36.6610 142.9000 50° Northeast 504 580 37,000  Level FlightAware ADS-B
Tue 05:49:07 AM 36.7120 142.9760 50° Northeast 504 580 37,000  Level FlightAware ADS-B
Tue 05:49:47 AM 36.7630 143.0510 50° Northeast 504 580 37,000  Level FlightAware ADS-B
Tue 05:50:37 AM 36.8270 143.1460 50° Northeast 504 580 37,000  Level FlightAware ADS-B
Tue 05:51:17 AM 36.8780 143.2220 50° Northeast 504 580 37,000  Level FlightAware ADS-B
Tue 05:51:57 AM 36.9280 143.2980 51° Northeast 504 580 37,000  Level FlightAware ADS-B
Tue 05:52:37 AM 36.9790 143.3740 50° Northeast 504 580 37,000  Level FlightAware ADS-B
Tue 05:53:27 AM 37.0430 143.4690 50° Northeast 504 580 37,000  Level FlightAware ADS-B
Tue 05:54:07 AM 37.0940 143.5450 50° Northeast 504 580 37,000  Level FlightAware ADS-B
Tue 05:54:47 AM 37.1450 143.6210 50° Northeast 504 580 37,000  Level FlightAware ADS-B
Tue 05:55:27 AM 37.1960 143.6980 50° Northeast 504 580 37,000  Level FlightAware ADS-B
Tue 05:56:07 AM 37.2470 143.7740 50° Northeast 504 580 37,000  Level FlightAware ADS-B
Tue 05:58:00 AM 37.4411 143.9602 37° Northeast  Level Estimated
Tue 05:59:00 AM 37.5440 144.0594 37° Northeast  Level Estimated
Tue 06:00:00 AM 37.6468 144.1589 37° Northeast  Level Estimated
Tue 06:01:00 AM 37.7496 144.2587 38° Northeast  Level Estimated
Tue 06:02:00 AM 37.8522 144.3588 38° Northeast  Level Estimated
Tue 06:03:00 AM 37.9548 144.4591 38° Northeast  Level Estimated
Tue 06:04:00 AM 38.0573 144.5597 38° Northeast  Level Estimated
Tue 06:05:00 AM 38.1597 144.6606 38° Northeast  Level Estimated
Tue 06:06:00 AM 38.2621 144.7618 38° Northeast  Level Estimated
Tue 06:07:00 AM 38.3643 144.8633 38° Northeast  Level Estimated
Tue 06:08:00 AM 38.4665 144.9651 38° Northeast  Level Estimated
Tue 06:09:00 AM 38.5685 145.0671 38° Northeast  Level Estimated
Tue 06:10:00 AM 38.6705 145.1694 38° Northeast  Level Estimated
Tue 06:11:00 AM 38.7724 145.2721 38° Northeast  Level Estimated
Tue 06:12:00 AM 38.8742 145.3750 38° Northeast  Level Estimated
Tue 06:13:00 AM 38.9759 145.4782 38° Northeast  Level Estimated
Tue 06:14:00 AM 39.0775 145.5818 38° Northeast  Level Estimated
Tue 06:15:00 AM 39.1790 145.6856 38° Northeast  Level Estimated
Tue 06:16:00 AM 39.2805 145.7897 38° Northeast  Level Estimated
Tue 06:17:00 AM 39.3818 145.8941 39° Northeast  Level Estimated
Tue 06:18:00 AM 39.4830 145.9988 39° Northeast  Level Estimated
Tue 06:19:00 AM 39.5842 146.1039 39° Northeast  Level Estimated
Tue 06:20:00 AM 39.6852 146.2092 39° Northeast  Level Estimated
Tue 06:21:00 AM 39.7862 146.3148 39° Northeast  Level Estimated
Tue 06:22:00 AM 39.8871 146.4208 39° Northeast  Level Estimated
Tue 06:23:00 AM 39.9878 146.5271 39° Northeast  Level Estimated
Tue 06:24:00 AM 40.0885 146.6336 39° Northeast  Level Estimated
Tue 06:25:00 AM 40.1891 146.7405 39° Northeast  Level Estimated
Tue 06:26:00 AM 40.2895 146.8477 39° Northeast  Level Estimated
Tue 06:27:00 AM 40.3899 146.9553 39° Northeast  Level Estimated
Tue 06:28:00 AM 40.4902 147.0631 39° Northeast  Level Estimated
Tue 06:29:00 AM 40.5904 147.1713 39° Northeast  Level Estimated
Tue 06:30:00 AM 40.6904 147.2798 39° Northeast  Level Estimated
Tue 06:31:00 AM 40.7904 147.3886 39° Northeast  Level Estimated
Tue 06:32:00 AM 40.8903 147.4978 40° Northeast  Level Estimated
Tue 06:33:00 AM 40.9900 147.6072 40° Northeast  Level Estimated
Tue 06:34:00 AM 41.0897 147.7171 40° Northeast  Level Estimated
Tue 06:35:00 AM 41.1892 147.8272 40° Northeast  Level Estimated
Tue 06:36:00 AM 41.2887 147.9377 40° Northeast  Level Estimated
Tue 06:37:00 AM 41.3880 148.0485 40° Northeast  Level Estimated
Tue 06:38:00 AM 41.4873 148.1597 40° Northeast  Level Estimated
Tue 06:39:00 AM 41.5864 148.2712 40° Northeast  Level Estimated
Tue 06:40:00 AM 41.6854 148.3830 40° Northeast  Level Estimated
Tue 06:41:00 AM 41.7843 148.4952 40° Northeast  Level Estimated
Tue 06:42:00 AM 41.8831 148.6077 40° Northeast  Level Estimated
Tue 06:43:00 AM 41.9818 148.7206 40° Northeast  Level Estimated
Tue 06:44:00 AM 42.0804 148.8338 40° Northeast  Level Estimated
Tue 06:45:00 AM 42.1789 148.9474 41° Northeast  Level Estimated
Tue 06:46:00 AM 42.2772 149.0614 41° Northeast  Level Estimated
Tue 06:47:00 AM 42.3755 149.1757 41° Northeast  Level Estimated
Tue 06:48:00 AM 42.4736 149.2903 41° Northeast  Level Estimated
Tue 06:49:00 AM 42.5716 149.4053 41° Northeast  Level Estimated
Tue 06:50:00 AM 42.6695 149.5207 41° Northeast  Level Estimated
Tue 06:51:00 AM 42.7673 149.6364 41° Northeast  Level Estimated
Tue 06:52:00 AM 42.8650 149.7525 41° Northeast  Level Estimated
Tue 06:53:00 AM 42.9625 149.8690 41° Northeast  Level Estimated
Tue 06:54:00 AM 43.0600 149.9858 41° Northeast  Level Estimated
Tue 06:55:00 AM 43.1573 150.1030 41° Northeast  Level Estimated
Tue 06:56:00 AM 43.2545 150.2206 41° Northeast  Level Estimated
Tue 06:57:00 AM 43.3515 150.3386 41° Northeast  Level Estimated
Tue 06:58:00 AM 43.4485 150.4569 42° Northeast  Level Estimated
Tue 06:59:00 AM 43.5453 150.5757 42° Northeast  Level Estimated
Tue 07:00:00 AM 43.6420 150.6948 42° Northeast  Level Estimated
Tue 07:01:00 AM 43.7386 150.8143 42° Northeast  Level Estimated
Tue 07:02:00 AM 43.8351 150.9341 42° Northeast  Level Estimated
Tue 07:03:00 AM 43.9314 151.0544 42° Northeast  Level Estimated
Tue 07:04:00 AM 44.0276 151.1750 42° Northeast  Level Estimated
Tue 07:05:00 AM 44.1237 151.2961 42° Northeast  Level Estimated
Tue 07:06:00 AM 44.2196 151.4175 42° Northeast  Level Estimated
Tue 07:07:00 AM 44.3154 151.5393 42° Northeast  Level Estimated
Tue 07:08:00 AM 44.4111 151.6616 42° Northeast  Level Estimated
Tue 07:09:00 AM 44.5067 151.7842 42° Northeast  Level Estimated
Tue 07:10:00 AM 44.6021 151.9072 43° Northeast  Level Estimated
Tue 07:11:00 AM 44.6974 152.0307 43° Northeast  Level Estimated
Tue 07:12:00 AM 44.7926 152.1545 43° Northeast  Level Estimated
Tue 07:13:00 AM 44.8876 152.2788 43° Northeast  Level Estimated
Tue 07:14:00 AM 44.9825 152.4034 43° Northeast  Level Estimated
Tue 07:15:00 AM 45.0773 152.5285 43° Northeast  Level Estimated
Tue 07:16:00 AM 45.1719 152.6540 43° Northeast  Level Estimated
Tue 07:17:00 AM 45.2664 152.7799 43° Northeast  Level Estimated
Tue 07:18:00 AM 45.3607 152.9062 43° Northeast  Level Estimated
Tue 07:19:00 AM 45.4549 153.0330 43° Northeast  Level Estimated
Tue 07:20:00 AM 45.5490 153.1602 43° Northeast  Level Estimated
Tue 07:21:00 AM 45.6429 153.2878 44° Northeast  Level Estimated
Tue 07:22:00 AM 45.7367 153.4158 44° Northeast  Level Estimated
Tue 07:23:00 AM 45.8303 153.5442 44° Northeast  Level Estimated
Tue 07:24:00 AM 45.9238 153.6731 44° Northeast  Level Estimated
Tue 07:25:00 AM 46.0171 153.8025 44° Northeast  Level Estimated
Tue 07:26:00 AM 46.1103 153.9322 44° Northeast  Level Estimated
Tue 07:27:00 AM 46.2034 154.0624 44° Northeast  Level Estimated
Tue 07:28:00 AM 46.2963 154.1931 44° Northeast  Level Estimated
Tue 07:29:00 AM 46.3890 154.3241 44° Northeast  Level Estimated
Tue 07:30:00 AM 46.4816 154.4557 44° Northeast  Level Estimated
Tue 07:31:00 AM 46.5741 154.5877 44° Northeast  Level Estimated
Tue 07:32:00 AM 46.6664 154.7201 45° Northeast  Level Estimated
Tue 07:33:00 AM 46.7585 154.8530 45° Northeast  Level Estimated
Tue 07:34:00 AM 46.8505 154.9863 45° Northeast  Level Estimated
Tue 07:35:00 AM 46.9423 155.1201 45° Northeast  Level Estimated
Tue 07:36:00 AM 47.0340 155.2544 45° Northeast  Level Estimated
Tue 07:37:00 AM 47.1255 155.3891 45° Northeast  Level Estimated
Tue 07:38:00 AM 47.2169 155.5243 45° Northeast  Level Estimated
Tue 07:39:00 AM 47.3081 155.6599 45° Northeast  Level Estimated
Tue 07:40:00 AM 47.3992 155.7961 45° Northeast  Level Estimated
Tue 07:41:00 AM 47.4900 155.9326 45° Northeast  Level Estimated
Tue 07:42:00 AM 47.5807 156.0697 46° Northeast  Level Estimated
Tue 07:43:00 AM 47.6713 156.2072 46° Northeast  Level Estimated
Tue 07:44:00 AM 47.7617 156.3452 46° Northeast  Level Estimated
Tue 07:45:00 AM 47.8519 156.4837 46° Northeast  Level Estimated
Tue 07:46:00 AM 47.9420 156.6227 46° Northeast  Level Estimated
Tue 07:47:00 AM 48.0319 156.7622 46° Northeast  Level Estimated
Tue 07:48:00 AM 48.1216 156.9021 46° Northeast  Level Estimated
Tue 07:49:00 AM 48.2111 157.0426 46° Northeast  Level Estimated
Tue 07:50:00 AM 48.3005 157.1835 46° Northeast  Level Estimated
Tue 07:51:00 AM 48.3897 157.3249 46° Northeast  Level Estimated
Tue 07:52:00 AM 48.4787 157.4668 47° Northeast  Level Estimated
Tue 07:53:00 AM 48.5676 157.6093 47° Northeast  Level Estimated
Tue 07:54:00 AM 48.6563 157.7522 47° Northeast  Level Estimated
Tue 07:55:00 AM 48.7448 157.8956 47° Northeast  Level Estimated
Tue 07:56:00 AM 48.8331 158.0395 47° Northeast  Level Estimated
Tue 07:56:56 AM 48.2833 160.6833 54° Northeast 527 606 37,000  Level Anchorage Center
Tue 07:57:00 AM 48.9212 158.1840 47° Northeast  Level Estimated
Tue 07:58:00 AM 49.0092 158.3289 47° Northeast  Level Estimated
Tue 07:59:00 AM 49.0970 158.4744 47° Northeast  Level Estimated
Tue 08:00:00 AM 49.1846 158.6203 47° Northeast  Level Estimated
Tue 08:01:00 AM 49.2720 158.7668 48° Northeast  Level Estimated
Tue 08:02:00 AM 49.3592 158.9138 48° Northeast  Level Estimated
Tue 08:03:00 AM 49.1087 162.4512 55° Northeast 527 606 37,000  Level FlightAware Transoceanic
Tue 08:04:00 AM 49.1898 162.6312 56° Northeast 527 606 37,000  Level FlightAware Transoceanic
Tue 08:05:00 AM 49.2705 162.8118 56° Northeast 527 606 37,000  Level FlightAware Transoceanic
Tue 08:06:00 AM 49.3510 162.9929 56° Northeast 527 606 37,000  Level FlightAware Transoceanic
Tue 08:07:00 AM 49.4312 163.1747 56° Northeast 527 606 37,000  Level FlightAware Transoceanic
Tue 08:08:00 AM 49.5111 163.3571 56° Northeast 527 606 37,000  Level FlightAware Transoceanic
Tue 08:09:00 AM 49.5907 163.5400 56° Northeast 527 606 37,000  Level FlightAware Transoceanic
Tue 08:10:00 AM 49.6700 163.7236 56° Northeast 527 606 37,000  Level FlightAware Transoceanic
Tue 08:11:00 AM 49.7491 163.9077 56° Northeast 527 606 37,000  Level FlightAware Transoceanic
Tue 08:12:00 AM 49.8278 164.0925 57° Northeast 527 606 37,000  Level FlightAware Transoceanic
Tue 08:13:00 AM 49.9062 164.2778 57° Northeast 527 606 37,000  Level FlightAware Transoceanic
Tue 08:14:00 AM 49.9844 164.4638 57° Northeast 527 606 37,000  Level FlightAware Transoceanic
Tue 08:15:00 AM 50.0622 164.6503 57° Northeast 527 606 37,000  Level FlightAware Transoceanic
Tue 08:16:00 AM 50.1398 164.8375 57° Northeast 527 606 37,000  Level FlightAware Transoceanic
Tue 08:17:00 AM 50.2170 165.0253 57° Northeast 527 606 37,000  Level FlightAware Transoceanic
Tue 08:18:00 AM 50.2940 165.2137 57° Northeast 527 606 37,000  Level FlightAware Transoceanic
Tue 08:19:00 AM 50.3706 165.4026 58° Northeast 527 606 37,000  Level FlightAware Transoceanic
Tue 08:20:00 AM 50.4470 165.5922 58° Northeast 527 606 37,000  Level FlightAware Transoceanic
Tue 08:21:00 AM 50.5230 165.7825 58° Northeast 527 606 37,000  Level FlightAware Transoceanic
Tue 08:22:00 AM 50.5987 165.9733 58° Northeast 527 606 37,000  Level FlightAware Transoceanic
Tue 08:23:00 AM 50.6741 166.1647 58° Northeast 527 606 37,000  Level FlightAware Transoceanic
Tue 08:24:00 AM 50.7492 166.3568 58° Northeast 527 606 37,000  Level FlightAware Transoceanic
Tue 08:25:00 AM 50.8240 166.5494 59° Northeast 527 606 37,000  Level FlightAware Transoceanic
Tue 08:26:00 AM 50.8984 166.7427 59° Northeast 527 606 37,000  Level FlightAware Transoceanic
Tue 08:27:00 AM 50.9725 166.9366 59° Northeast 527 606 37,000  Level FlightAware Transoceanic
Tue 08:28:00 AM 51.0463 167.1311 59° Northeast 527 606 37,000  Level FlightAware Transoceanic
Tue 08:29:00 AM 51.1198 167.3263 59° Northeast 527 606 37,000  Level FlightAware Transoceanic
Tue 08:30:00 AM 51.1930 167.5220 59° Northeast 527 606 37,000  Level FlightAware Transoceanic
Tue 08:31:00 AM 51.2658 167.7184 59° Northeast 527 606 37,000  Level FlightAware Transoceanic
Tue 08:32:00 AM 51.3383 167.9154 60° Northeast 527 606 37,000  Level FlightAware Transoceanic
Tue 08:33:00 AM 51.4105 168.1130 60° Northeast 527 606 37,000 1,791 Level FlightAware Transoceanic
Tue 08:33:07 AM 51.3833 168.0667 61° Northeast 520 598 39,000  Climbing Anchorage Center
Tue 08:34:00 AM 51.4823 168.3113 60° Northeast 527 606 37,000  Descending FlightAware Transoceanic
Tue 08:34:07 AM 51.4500 168.2500 60° Northeast 510 587 39,000  Climbing Anchorage Center
Tue 08:35:00 AM 51.5538 168.5102 60° Northeast 527 606 37,000  Descending FlightAware Transoceanic
Tue 08:35:08 AM 51.5167 168.4667 64° Northeast 470 541 39,000  Climbing Anchorage Center
Tue 08:36:00 AM 51.6250 168.7097 60° Northeast 527 606 37,000  Descending FlightAware Transoceanic
Tue 08:36:07 AM 51.5833 168.6333 57° Northeast 530 610 39,000  Climbing Anchorage Center
Tue 08:37:00 AM 51.6958 168.9098 60° Northeast 527 606 37,000  Descending FlightAware Transoceanic
Tue 08:37:07 AM 51.6667 168.8500 58° Northeast 510 587 39,000  Climbing Anchorage Center
Tue 08:38:00 AM 51.7663 169.1105 61° Northeast 527 606 37,000  Descending FlightAware Transoceanic
Tue 08:39:08 AM 51.8000 169.2333 61° Northeast 500 575 39,000 938 Climbing Anchorage Center
Tue 08:40:08 AM 51.8667 169.4000 57° Northeast 520 598 39,000  Level Anchorage Center
Tue 08:41:08 AM 51.9333 169.6167 63° Northeast 510 587 39,000  Level Anchorage Center
Tue 08:42:08 AM 52.0167 169.8333 58° Northeast 510 587 39,000  Level Anchorage Center
Tue 08:43:08 AM 52.0667 170.0167 66° East 510 587 39,000  Level Anchorage Center
Tue 08:44:08 AM 52.1500 170.2333 58° Northeast 510 587 39,000  Level Anchorage Center
Tue 08:45:08 AM 52.2000 170.4167 66° East 510 587 39,000  Level Anchorage Center
Tue 08:46:08 AM 52.2833 170.6167 56° Northeast 510 587 39,000  Level Anchorage Center
Tue 08:47:08 AM 52.3500 170.7833 57° Northeast 500 575 39,000  Level Anchorage Center
Tue 08:48:08 AM 52.4500 170.9833 51° Northeast 500 575 39,000  Level Anchorage Center
Tue 08:49:08 AM 52.5167 171.1333 54° Northeast 500 575 39,000  Level Anchorage Center
Tue 08:50:08 AM 52.6167 171.3333 50° Northeast 510 587 39,000  Level Anchorage Center
Tue 08:51:08 AM 52.7000 171.5500 58° Northeast 500 575 39,000  Level Anchorage Center
Tue 08:52:08 AM 52.7667 171.7000 54° Northeast 500 575 39,000  Level Anchorage Center
Tue 08:53:08 AM 52.8500 171.9167 57° Northeast 480 552 39,000  Level Anchorage Center
Tue 08:54:08 AM 52.9333 172.0833 50° Northeast 520 598 39,000  Level Anchorage Center
Tue 08:55:09 AM 53.0167 172.2833 55° Northeast 490 564 39,000  Level Anchorage Center
Tue 08:56:09 AM 53.0833 172.4333 53° Northeast 490 564 39,000  Level Anchorage Center
Tue 08:57:09 AM 53.1667 172.6500 57° Northeast 490 564 39,000  Level Anchorage Center
Tue 08:58:09 AM 53.2333 172.8000 53° Northeast 480 552 39,000  Level Anchorage Center
Tue 08:59:09 AM 53.3167 173.0000 55° Northeast 490 564 39,000  Level Anchorage Center
Tue 09:00:09 AM 53.3833 173.1667 56° Northeast 490 564 39,000  Level Anchorage Center
Tue 09:01:09 AM 53.4667 173.3833 57° Northeast 490 564 39,000  Level Anchorage Center
Tue 09:02:09 AM 53.5333 173.5500 56° Northeast 490 564 39,000  Level Anchorage Center
Tue 09:03:09 AM 53.6167 173.7667 57° Northeast 490 564 39,000  Level Anchorage Center
Tue 09:04:09 AM 53.7000 173.9667 55° Northeast 490 564 39,000  Level Anchorage Center
Tue 09:05:09 AM 53.7500 174.1333 63° Northeast 490 564 39,000  Level Anchorage Center
Tue 09:06:09 AM 53.8333 174.3500 57° Northeast 490 564 39,000  Level Anchorage Center
Tue 09:07:09 AM 53.9000 174.5167 56° Northeast 480 552 39,000  Level Anchorage Center
Tue 09:08:09 AM 53.9667 174.7333 62° Northeast 490 564 39,000  Level Anchorage Center
Tue 09:09:09 AM 54.0333 174.9000 56° Northeast 490 564 39,000  Level Anchorage Center
Tue 09:10:09 AM 54.1167 175.1167 57° Northeast 480 552 39,000  Level Anchorage Center
Tue 09:11:09 AM 54.1667 175.2833 63° Northeast 480 552 39,000  Level Anchorage Center
Tue 09:12:10 AM 54.2500 175.5000 57° Northeast 480 552 39,000  Level Anchorage Center
Tue 09:13:09 AM 54.3167 175.6667 56° Northeast 480 552 39,000  Level Anchorage Center
Tue 09:14:10 AM 54.3833 175.8833 62° Northeast 480 552 39,000  Level Anchorage Center
Tue 09:15:10 AM 54.4667 176.1000 56° Northeast 480 552 39,000  Level Anchorage Center
Tue 09:16:10 AM 54.5167 176.2833 65° Northeast 480 552 39,000  Level Anchorage Center
Tue 09:17:10 AM 54.6000 176.5000 56° Northeast 490 564 39,000  Level Anchorage Center
Tue 09:18:10 AM 54.6500 176.6667 63° Northeast 480 552 39,000  Level Anchorage Center
Tue 09:19:10 AM 54.7333 176.8833 56° Northeast 470 541 39,000  Level Anchorage Center
Tue 09:20:10 AM 54.7833 177.0667 65° Northeast 480 552 39,000  Level Anchorage Center
Tue 09:21:10 AM 54.8667 177.2833 56° Northeast 480 552 39,000  Level Anchorage Center
Tue 09:22:10 AM 54.9167 177.4500 62° Northeast 470 541 39,000  Level Anchorage Center
Tue 09:23:10 AM 55.0000 177.6667 56° Northeast 470 541 39,000  Level Anchorage Center
Tue 09:24:11 AM 55.0667 177.9000 63° Northeast 480 552 39,000  Level Anchorage Center
Tue 09:27:00 AM 55.1815 178.2770 62° Northeast  Level FlightAware Approximate
Tue 09:34:00 AM 55.6236 179.7403 61° Northeast  Level FlightAware Approximate
Tue 09:35:00 AM 55.6858 179.9515 62° Northeast  Level FlightAware Approximate
Tue 09:36:00 AM 55.7482 -179.8370 62° Northeast  Level FlightAware Approximate
Tue 09:37:00 AM 55.8103 -179.6251 62° Northeast  Level FlightAware Approximate
Tue 09:38:00 AM 55.8721 -179.4124 63° Northeast  Level FlightAware Approximate
Tue 09:39:00 AM 55.9336 -179.1991 63° Northeast  Level FlightAware Approximate
Tue 09:40:00 AM 55.9947 -178.9852 63° Northeast  Level FlightAware Approximate
Tue 09:41:00 AM 56.0555 -178.7706 63° Northeast  Level FlightAware Approximate
Tue 09:42:00 AM 56.1160 -178.5554 63° Northeast  Level FlightAware Approximate
Tue 09:43:00 AM 56.1761 -178.3396 63° Northeast  Level FlightAware Approximate
Tue 09:44:00 AM 56.2359 -178.1230 64° Northeast  Level FlightAware Approximate
Tue 09:45:00 AM 56.2952 -177.9058 64° Northeast  Level FlightAware Approximate
Tue 09:46:00 AM 56.3542 -177.6879 64° Northeast  Level FlightAware Approximate
Tue 09:47:00 AM 56.4128 -177.4693 64° Northeast  Level FlightAware Approximate
Tue 09:48:00 AM 56.4710 -177.2501 64° Northeast  Level FlightAware Approximate
Tue 09:49:00 AM 56.5288 -177.0302 64° Northeast  Level FlightAware Approximate
Tue 09:50:00 AM 56.5862 -176.8096 65° Northeast  Level FlightAware Approximate
Tue 09:51:00 AM 56.6432 -176.5883 65° Northeast  Level FlightAware Approximate
Tue 09:52:00 AM 56.6998 -176.3664 65° Northeast  Level FlightAware Approximate
Tue 09:53:00 AM 56.7557 -176.1435 65° Northeast  Level FlightAware Approximate
Tue 09:54:00 AM 56.8110 -175.9198 66° East  Level FlightAware Approximate
Tue 09:55:00 AM 56.8658 -175.6954 66° East  Level FlightAware Approximate
Tue 09:56:00 AM 56.9203 -175.4704 66° East  Level FlightAware Approximate
Tue 09:57:00 AM 56.9744 -175.2447 66° East  Level FlightAware Approximate
Tue 09:58:00 AM 57.0281 -175.0184 66° East  Level FlightAware Approximate
Tue 09:58:12 AM 57.0000 -175.0833 67° East 440 506 39,000  Level Anchorage Center
Tue 09:59:00 AM 57.0813 -174.7914 67° East  Level FlightAware Approximate
Tue 09:59:12 AM 57.0500 -174.8667 67° East 440 506 39,000  Level Anchorage Center
Tue 10:00:00 AM 57.1342 -174.5638 67° East  Level FlightAware Approximate
Tue 10:00:12 AM 57.1000 -174.6667 65° Northeast 440 506 39,000  Level Anchorage Center
Tue 10:01:00 AM 57.1866 -174.3355 67° East  Level FlightAware Approximate
Tue 10:01:12 AM 57.1500 -174.4500 67° East 440 506 39,000  Level Anchorage Center
Tue 10:02:00 AM 57.2386 -174.1066 67° East  Level FlightAware Approximate
Tue 10:02:13 AM 57.2000 -174.2333 67° East 440 506 39,000  Level Anchorage Center
Tue 10:03:00 AM 57.2902 -173.8770 67° East  Level FlightAware Approximate
Tue 10:03:12 AM 57.2500 -174.0167 67° East 450 518 39,000  Level Anchorage Center
Tue 10:04:13 AM 57.3000 -173.8000 67° East 460 529 39,000  Level Anchorage Center
Tue 10:05:13 AM 57.3500 -173.6000 65° Northeast 440 506 39,000  Level Anchorage Center
Tue 10:06:12 AM 57.4000 -173.3833 67° East 440 506 39,000  Level Anchorage Center
Tue 10:07:13 AM 57.4500 -173.1667 67° East 440 506 39,000  Level Anchorage Center
Tue 10:08:13 AM 57.4833 -172.9500 74° East 440 506 39,000  Level Anchorage Center
Tue 10:09:13 AM 57.5333 -172.7333 67° East 430 495 39,000  Level Anchorage Center
Tue 10:10:14 AM 57.5667 -172.5667 69° East 450 518 39,000  Level Anchorage Center
Tue 10:11:13 AM 57.6167 -172.3500 67° East 460 529 39,000  Level Anchorage Center
Tue 10:12:13 AM 57.6667 -172.1333 67° East 450 518 39,000  Level Anchorage Center
Tue 10:13:13 AM 57.7167 -171.9167 67° East 450 518 39,000  Level Anchorage Center
Tue 10:14:13 AM 57.7500 -171.7000 74° East 450 518 39,000  Level Anchorage Center
Tue 10:15:13 AM 57.8000 -171.4833 67° East 440 506 39,000  Level Anchorage Center
Tue 10:16:14 AM 57.8500 -171.2667 66° East 440 506 39,000  Level Anchorage Center
Tue 10:17:13 AM 57.8833 -171.0500 74° East 440 506 39,000  Level Anchorage Center
Tue 10:18:13 AM 57.9333 -170.8333 66° East 440 506 39,000  Level Anchorage Center
Tue 10:19:13 AM 57.9833 -170.6167 66° East 430 495 39,000  Level Anchorage Center
Tue 10:20:14 AM 58.0167 -170.4000 74° East 430 495 39,000  Level Anchorage Center
Tue 10:21:14 AM 58.0667 -170.1833 66° East 430 495 39,000  Level Anchorage Center
Tue 10:22:14 AM 58.1167 -169.9667 66° East 440 506 39,000  Level Anchorage Center
Tue 10:23:14 AM 58.1667 -169.7500 66° East 440 506 39,000  Level Anchorage Center
Tue 10:24:14 AM 58.2000 -169.5333 74° East 440 506 39,000  Level Anchorage Center
Tue 10:25:14 AM 58.2500 -169.3167 66° East 430 495 39,000  Level Anchorage Center
Tue 10:26:14 AM 58.3000 -169.1000 66° East 440 506 39,000  Level Anchorage Center
Tue 10:27:14 AM 58.3333 -168.8833 74° East 440 506 39,000  Level Anchorage Center
Tue 10:28:14 AM 58.3833 -168.6667 66° East 440 506 39,000  Level Anchorage Center
Tue 10:29:14 AM 58.4333 -168.4500 66° East 430 495 39,000  Level Anchorage Center
Tue 10:30:14 AM 58.4667 -168.2333 74° East 440 506 39,000  Level Anchorage Center
Tue 10:31:05 AM 58.5000 -168.0667 69° East 430 495 39,000  Level Anchorage Center
Tue 10:32:05 AM 58.5500 -167.8333 68° East 440 506 39,000  Level Anchorage Center
Tue 10:33:05 AM 58.5833 -167.6167 73° East 430 495 39,000  Level Anchorage Center
Tue 10:34:14 AM 58.6333 -167.3500 70° East 440 506 39,000  Level Anchorage Center
Tue 10:35:14 AM 58.6833 -167.1167 68° East 450 518 39,000  Level Anchorage Center
Tue 10:36:15 AM 58.7167 -166.9000 73° East 450 518 39,000  Level Anchorage Center
Tue 10:37:14 AM 58.7667 -166.6500 69° East 460 529 39,000  Level Anchorage Center
Tue 10:38:14 AM 58.8000 -166.4167 74° East 460 529 39,000  Level Anchorage Center
Tue 10:39:15 AM 58.8500 -166.2000 66° East 460 529 39,000  Level Anchorage Center
Tue 10:40:06 AM 58.8833 -166.0167 71° East 460 529 39,000  Level Anchorage Center
Tue 10:42:06 AM 58.9667 -165.5333 71° East 460 529 39,000  Level Anchorage Center
Tue 10:43:06 AM 59.0000 -165.3000 74° East 450 518 39,000  Level Anchorage Center
Tue 10:44:06 AM 59.0333 -165.0667 74° East 450 518 39,000  Level Anchorage Center
Tue 10:45:07 AM 59.0833 -164.8333 67° East 470 541 39,000  Level Anchorage Center
Tue 10:46:06 AM 59.1167 -164.6000 74° East 450 518 39,000  Level Anchorage Center
Tue 10:47:06 AM 59.1667 -164.3500 69° East 460 529 39,000  Level Anchorage Center
Tue 10:48:07 AM 59.2000 -164.1167 74° East 460 529 39,000  Level Anchorage Center
Tue 10:49:07 AM 59.2333 -163.8667 75° East 460 529 39,000  Level Anchorage Center
Tue 10:50:07 AM 59.2833 -163.6167 69° East 470 541 39,000  Level Anchorage Center
Tue 10:51:07 AM 59.3167 -163.3833 74° East 470 541 39,000  Level Anchorage Center
Tue 10:52:07 AM 59.3500 -163.1333 75° East 470 541 39,000  Level Anchorage Center
Tue 10:53:07 AM 59.4000 -162.8833 68° East 460 529 39,000  Level Anchorage Center
Tue 10:54:07 AM 59.4333 -162.6333 75° East 460 529 39,000  Level Anchorage Center
Tue 10:55:07 AM 59.4833 -162.4000 67° East 470 541 39,000  Level Anchorage Center
Tue 10:56:07 AM 59.5167 -162.1500 75° East 470 541 39,000  Level Anchorage Center
Tue 10:57:07 AM 59.5500 -161.9000 75° East 470 541 39,000  Level Anchorage Center
Tue 10:58:08 AM 59.6000 -161.6500 68° East 470 541 39,000  Level Anchorage Center
Tue 10:59:08 AM 59.6333 -161.4000 75° East 470 541 39,000  Level Anchorage Center
Tue 11:00:08 AM 59.6833 -161.1500 68° East 470 541 39,000  Level Anchorage Center
Tue 11:01:08 AM 59.7167 -160.9000 75° East 470 541 39,000  Level Anchorage Center
Tue 11:02:08 AM 59.7500 -160.6500 75° East 470 541 39,000  Level Anchorage Center
Tue 11:03:08 AM 59.7833 -160.4000 75° East 480 552 39,000  Level Anchorage Center
Tue 11:04:08 AM 59.8333 -160.1333 69° East 470 541 39,000  Level Anchorage Center
Tue 11:05:08 AM 59.8667 -159.8833 75° East 490 564 39,000  Level Anchorage Center
Tue 11:06:08 AM 59.9000 -159.6167 76° East 480 552 39,000  Level Anchorage Center
Tue 11:07:08 AM 59.9333 -159.3667 75° East 480 552 39,000  Level Anchorage Center
Tue 11:08:08 AM 59.9667 -159.1000 76° East 480 552 39,000  Level Anchorage Center
Tue 11:09:08 AM 60.0167 -158.8333 69° East 470 541 39,000  Level Anchorage Center
Tue 11:10:09 AM 60.0333 -158.5833 82° East 470 541 39,000  Level Anchorage Center
Tue 11:11:09 AM 60.0833 -158.3167 69° East 470 541 39,000  Level Anchorage Center
Tue 11:12:09 AM 60.1000 -158.0667 82° East 470 541 39,000  Level Anchorage Center
Tue 11:13:09 AM 60.1333 -157.8000 76° East 480 552 39,000  Level Anchorage Center
Tue 11:14:09 AM 60.1667 -157.5500 75° East 480 552 39,000  Level Anchorage Center
Tue 11:15:09 AM 60.2000 -157.2833 76° East 480 552 39,000  Level Anchorage Center
Tue 11:16:09 AM 60.2333 -157.0167 76° East 470 541 39,000  Level Anchorage Center
Tue 11:17:09 AM 60.2667 -156.7500 76° East 490 564 39,000  Level Anchorage Center
Tue 11:18:09 AM 60.3000 -156.4833 76° East 490 564 39,000  Level Anchorage Center
Tue 11:19:10 AM 60.3333 -156.2167 76° East 480 552 39,000  Level Anchorage Center
Tue 11:20:10 AM 60.3500 -155.9667 82° East 480 552 39,000  Level Anchorage Center
Tue 11:21:10 AM 60.3833 -155.7000 76° East 490 564 39,000  Level Anchorage Center
Tue 11:22:10 AM 60.4167 -155.4333 76° East 480 552 39,000 -478 Level Anchorage Center
Tue 11:28:17 AM 60.6170 -153.7820 76° East 494 568 35,600 -708 Descending FlightAware ADS-B
Tue 11:28:57 AM 60.6390 -153.6120 75° East 486 559 34,200 -2,047 Descending FlightAware ADS-B
Tue 11:29:42 AM 60.6630 -153.4100 76° East 472 543 32,700 -2,118 Descending FlightAware ADS-B
Tue 11:30:22 AM 60.6840 -153.2390 76° East 465 535 31,200 -2,250 Descending FlightAware ADS-B
Tue 11:31:02 AM 60.7050 -153.0660 76° East 454 522 29,700 -2,100 Descending FlightAware ADS-B
Tue 11:31:42 AM 60.7250 -152.8970 76° East 440 506 28,400 -2,047 Descending FlightAware ADS-B
Tue 11:32:27 AM 60.7460 -152.7250 76° East 432 497 26,800 -2,133 Descending FlightAware ADS-B
Tue 11:33:12 AM 60.7670 -152.5400 77° East 421 484 25,200 -2,047 Descending FlightAware ADS-B
Tue 11:33:52 AM 60.7850 -152.3920 76° East 410 472 23,900 -1,968 Descending FlightAware ADS-B
Tue 11:35:17 AM 60.8200 -152.0780 77° East 389 448 21,100 -1,968 Descending FlightAware ADS-B
Tue 11:35:57 AM 60.8370 -151.9330 76° East 380 437 19,800 -2,025 Descending FlightAware ADS-B
Tue 11:36:37 AM 60.8530 -151.7890 77° East 374 430 18,400 -1,976 Descending FlightAware ADS-B
Tue 11:37:22 AM 60.8700 -151.6360 77° East 367 422 17,000 -2,067 Descending FlightAware ADS-B
Tue 11:38:07 AM 60.8860 -151.4870 77° East 365 420 15,300 -2,448 Descending FlightAware ADS-B
Tue 11:39:27 AM 60.9300 -151.2230 71° East 366 421 11,900 -2,016 Descending FlightAware ADS-B
Tue 11:40:12 AM 60.9630 -151.0840 64° Northeast 330 380 11,100 -918 Descending FlightAware ADS-B
Tue 11:40:52 AM 61.0000 -150.9980 48° Northeast 299 344 10,600 -1,114 Descending FlightAware ADS-B
Tue 11:41:22 AM 61.0310 -150.9400 42° Northeast 285 328 9,800 -1,855 Descending FlightAware ADS-B
Tue 11:41:47 AM 61.0550 -150.8940 43° Northeast 283 326 8,900 -2,073 Descending FlightAware ADS-B
Tue 11:42:17 AM 61.0840 -150.8410 41° Northeast 271 312 7,900 -1,477 Descending FlightAware ADS-B
Tue 11:42:52 AM 61.1110 -150.7900 42° Northeast 246 283 7,300 -1,233 Descending FlightAware ADS-B
Tue 11:45:17 AM 61.1660 -150.5000 68° East 205 236 4,200 -1,263 Descending FlightAware ADS-B
Tue 11:46:02 AM 61.1670 -150.4080 89° East 187 215 3,300 -1,059 Descending FlightAware ADS-B
Tue 11:46:42 AM 61.1670 -150.3440 90° East 166 191 2,700 -867 Descending FlightAware ADS-B
Tue 11:49:00 AM 61.1667 -149.9833 90° East  Level FlightAware Approximate
Tue 11:49:02 AM 61.1680 -150.1460 90° East 143 165 700  Level FlightAware ADS-B
Tue 11:49:22 AM 61.1680 -150.1190 90° East 144 166 400 -720 Descending FlightAware ADS-B
Tue 11:49:52 AM 61.1680 -150.0810 90° East 148 170 100 -600 Descending FlightAware ADS-B
Tue 11:50:27 AM 61.1680 -150.0290 90° East 150 173 -171 Descending FlightAware ADS-B
Tue 11:53:00 AM 61.1667 -149.9833 90° East  Level FlightAware Approximate

Login

Don't have an account? Register now (free) for customized features, flight alerts, and more!